Time;durP1;ratioP1;P1;durP2;ratioP2;P2;SDS_P1;SDS_P2;PMS_P1;PMS_P2;Temp;Humidity;BMP_temperature;BMP_pressure;BME280_temperature;BME280_humidity;BME280_pressure;Samples;Min_cycle;Max_cycle;Signal;HPM_P1;HPM_P2
2022/12/03 00:01:24;;;;;;;23.27;14.57;;;3.20;98.20;;;;;;5042143;28;20582;-78
2022/12/03 00:03:54;;;;;;;26.10;14.80;;;3.20;98.30;;;;;;5042758;28;20289;-79
2022/12/03 00:06:30;;;;;;;24.90;15.50;;;3.20;98.30;;;;;;5044453;28;20210;-78
2022/12/03 00:09:01;;;;;;;25.00;15.37;;;3.00;99.00;;;;;;5047035;28;20629;-78
2022/12/03 00:11:30;;;;;;;26.23;16.17;;;2.90;99.20;;;;;;5044119;28;20212;-83
2022/12/03 00:14:06;;;;;;;26.07;15.03;;;3.00;99.40;;;;;;5049151;28;20292;-78
2022/12/03 00:16:42;;;;;;;25.60;15.37;;;3.00;99.00;;;;;;5052914;28;20292;-78
2022/12/03 00:19:09;;;;;;;24.77;14.47;;;3.00;99.10;;;;;;5045914;28;20233;-82
2022/12/03 00:21:42;;;;;;;22.50;14.43;;;2.90;98.70;;;;;;5050689;28;20226;-78
2022/12/03 00:24:09;;;;;;;23.73;14.60;;;2.90;98.70;;;;;;5047405;28;20297;-77
2022/12/03 00:26:50;;;;;;;23.17;14.03;;;2.90;98.80;;;;;;5050505;28;20549;-77
2022/12/03 00:29:24;;;;;;;24.77;14.13;;;2.90;98.60;;;;;;5050169;28;20288;-78
2022/12/03 00:32:06;;;;;;;22.47;14.17;;;2.90;98.40;;;;;;5048436;28;20201;-77
2022/12/03 00:34:36;;;;;;;22.30;13.63;;;2.70;98.30;;;;;;5050811;28;20221;-78
2022/12/03 00:37:06;;;;;;;24.50;14.67;;;2.80;98.20;;;;;;5047337;28;20199;-77
2022/12/03 00:39:42;;;;;;;25.07;14.47;;;2.80;98.80;;;;;;5045933;28;20741;-81
2022/12/03 00:42:14;;;;;;;24.00;13.47;;;2.80;99.00;;;;;;5051993;28;20292;-78
2022/12/03 00:44:48;;;;;;;23.10;14.13;;;2.60;98.90;;;;;;5048559;28;20213;-78
2022/12/03 00:47:15;;;;;;;24.27;15.00;;;2.60;99.10;;;;;;5049006;28;20201;-77
2022/12/03 00:49:42;;;;;;;23.37;14.33;;;2.50;99.60;;;;;;5035410;28;20294;-77
2022/12/03 00:52:24;;;;;;;24.07;14.77;;;2.60;99.30;;;;;;5053017;28;20206;-83
2022/12/03 00:54:51;;;;;;;29.00;16.00;;;2.60;99.20;;;;;;5046393;28;20568;-78
2022/12/03 00:57:26;;;;;;;24.30;14.83;;;2.50;99.30;;;;;;5049301;28;20197;-77
2022/12/03 00:59:54;;;;;;;25.57;15.10;;;2.60;99.30;;;;;;5047178;28;20596;-80
2022/12/03 01:02:21;;;;;;;27.67;14.90;;;2.60;99.30;;;;;;5026366;28;20203;-78
2022/12/03 01:04:48;;;;;;;26.50;15.20;;;2.60;99.40;;;;;;5050353;28;20217;-78
2022/12/03 01:07:18;;;;;;;23.00;13.47;;;2.70;99.20;;;;;;5048619;28;20233;-77
2022/12/03 01:09:45;;;;;;;24.77;13.63;;;2.60;98.90;;;;;;5052064;28;20289;-79
2022/12/03 01:12:18;;;;;;;23.53;13.60;;;2.70;98.70;;;;;;5049463;28;20198;-77
2022/12/03 01:14:56;;;;;;;27.20;15.43;;;2.70;98.30;;;;;;5047902;28;20293;-77
2022/12/03 01:17:24;;;;;;;24.33;14.17;;;2.60;98.70;;;;;;5050554;28;20294;-78
2022/12/03 01:19:52;;;;;;;27.23;14.50;;;2.50;98.80;;;;;;5042196;28;20224;-77
2022/12/03 01:22:30;;;;;;;22.00;13.10;;;2.50;98.90;;;;;;5046969;28;20654;-78
2022/12/03 01:24:57;;;;;;;26.07;14.10;;;2.50;99.00;;;;;;5051831;28;20234;-78
2022/12/03 01:27:42;;;;;;;26.87;15.10;;;2.50;99.00;;;;;;5051370;28;20198;-78
2022/12/03 01:30:13;;;;;;;26.83;14.50;;;2.50;99.10;;;;;;5052633;28;20233;-80
2022/12/03 01:32:39;;;;;;;24.33;13.60;;;2.60;98.70;;;;;;5044789;28;20315;-78
2022/12/03 01:35:07;;;;;;;24.53;13.73;;;2.60;99.00;;;;;;5049841;28;20289;-79
2022/12/03 01:37:36;;;;;;;23.73;14.40;;;2.60;98.80;;;;;;5048167;28;20210;-78
2022/12/03 01:40:05;;;;;;;25.40;13.63;;;2.60;98.70;;;;;;5047822;28;20218;-77
2022/12/03 01:42:34;;;;;;;19.87;12.67;;;2.50;98.70;;;;;;5050985;28;20205;-78
2022/12/03 01:45:23;;;;;;;24.70;14.37;;;2.50;98.80;;;;;;5050668;28;20284;-77
2022/12/03 01:47:54;;;;;;;25.70;14.20;;;2.20;98.80;;;;;;5046742;28;20206;-77
2022/12/03 01:50:29;;;;;;;22.33;13.00;;;2.20;99.40;;;;;;5048965;28;20292;-78
2022/12/03 01:53:24;;;;;;;20.70;13.43;;;2.30;99.20;;;;;;5052854;28;20198;-77
2022/12/03 01:55:54;;;;;;;24.10;13.53;;;2.20;99.40;;;;;;5053640;28;20644;-77
2022/12/03 01:58:36;;;;;;;23.60;13.10;;;2.20;99.40;;;;;;5046965;28;20252;-77
2022/12/03 02:01:13;;;;;;;21.87;13.17;;;2.20;99.20;;;;;;5042294;28;20281;-78
2022/12/03 02:03:40;;;;;;;20.67;11.93;;;2.20;99.60;;;;;;5050622;28;20198;-78
2022/12/03 02:06:17;;;;;;;20.17;11.90;;;2.20;99.60;;;;;;5045166;28;20201;-77
2022/12/03 02:08:58;;;;;;;26.07;13.03;;;2.30;99.00;;;;;;5052775;28;20291;-78
2022/12/03 02:11:30;;;;;;;21.23;12.50;;;2.30;99.20;;;;;;5044750;28;20585;-77
2022/12/03 02:14:19;;;;;;;24.20;12.40;;;2.20;99.10;;;;;;5031763;28;20289;-77
2022/12/03 02:16:56;;;;;;;20.00;11.60;;;2.00;98.90;;;;;;5048749;28;20288;-78
2022/12/03 02:19:26;;;;;;;20.43;11.47;;;2.00;99.20;;;;;;5050055;28;20275;-78
2022/12/03 02:22:00;;;;;;;17.63;10.73;;;2.00;99.40;;;;;;5048465;28;20198;-78
2022/12/03 02:24:42;;;;;;;21.93;11.93;;;2.00;99.40;;;;;;5046635;28;20194;-77
2022/12/03 02:27:31;;;;;;;18.87;11.30;;;2.10;99.40;;;;;;5043753;28;20650;-77
2022/12/03 02:30:08;;;;;;;19.37;11.40;;;2.00;99.10;;;;;;5044057;28;20551;-77
2022/12/03 02:32:49;;;;;;;18.40;11.40;;;2.00;99.30;;;;;;5046771;28;20204;-77
2022/12/03 02:35:26;;;;;;;20.10;12.20;;;2.00;99.60;;;;;;5048229;28;20197;-78
2022/12/03 02:44:09;;;;;;;20.57;11.63;;;2.00;99.50;;;;;;5046245;28;20255;-77
2022/12/03 02:46:48;;;;;;;20.20;11.73;;;2.00;99.60;;;;;;5047558;28;20309;-78
2022/12/03 02:49:15;;;;;;;19.57;11.27;;;2.00;99.60;;;;;;5047227;28;20259;-78
2022/12/03 02:51:42;;;;;;;20.27;11.83;;;2.00;99.60;;;;;;5051044;28;20294;-77
2022/12/03 02:54:12;;;;;;;20.20;12.47;;;2.10;99.60;;;;;;5042934;28;20222;-79
2022/12/03 02:56:39;;;;;;;21.33;11.97;;;2.20;99.10;;;;;;5049426;28;20295;-79
2022/12/03 02:59:08;;;;;;;21.30;12.10;;;2.10;98.90;;;;;;5044862;28;20217;-77
2022/12/03 03:01:38;;;;;;;20.53;12.43;;;2.00;99.20;;;;;;5047071;28;20669;-77
2022/12/03 03:04:06;;;;;;;21.57;12.97;;;2.00;99.30;;;;;;5046578;28;20213;-78
2022/12/03 03:06:49;;;;;;;20.27;12.37;;;2.10;99.80;;;;;;5049005;28;20284;-77
2022/12/03 03:09:30;;;;;;;23.50;12.83;;;2.10;99.40;;;;;;5050648;28;20210;-77
2022/12/03 03:12:06;;;;;;;23.93;13.37;;;2.10;99.10;;;;;;5049726;28;20208;-77
2022/12/03 03:14:50;;;;;;;21.93;12.67;;;2.00;99.30;;;;;;5042486;28;20582;-78
2022/12/03 03:17:18;;;;;;;19.90;12.50;;;2.10;99.40;;;;;;5040484;28;20202;-78
2022/12/03 03:19:48;;;;;;;20.13;12.33;;;2.10;99.10;;;;;;5045091;28;20632;-79
2022/12/03 03:22:15;;;;;;;22.77;12.43;;;2.10;98.90;;;;;;5048074;28;20206;-78
2022/12/03 03:24:43;;;;;;;25.80;13.80;;;2.00;99.80;;;;;;5048462;28;20676;-78
2022/12/03 03:27:12;;;;;;;23.17;13.13;;;2.00;99.60;;;;;;5048066;28;20202;-78
2022/12/03 03:29:42;;;;;;;21.73;12.70;;;2.00;99.60;;;;;;5031926;28;20289;-78
2022/12/03 03:32:14;;;;;;;23.33;13.30;;;2.00;99.60;;;;;;5047997;28;20297;-78
2022/12/03 03:34:41;;;;;;;20.63;12.47;;;2.10;99.50;;;;;;5047665;28;20675;-77
2022/12/03 03:37:12;;;;;;;20.40;12.53;;;2.00;99.40;;;;;;5053477;28;20690;-78
2022/12/03 03:39:42;;;;;;;21.77;12.47;;;2.00;99.40;;;;;;5048413;28;20213;-78
2022/12/03 03:42:10;;;;;;;21.27;12.80;;;2.00;99.60;;;;;;5047885;28;20308;-79
2022/12/03 03:44:37;;;;;;;23.00;12.83;;;2.00;99.60;;;;;;5051345;28;20240;-79
2022/12/03 03:47:14;;;;;;;21.80;12.77;;;1.90;99.60;;;;;;5045856;28;20731;-78
2022/12/03 03:49:54;;;;;;;23.23;12.67;;;2.00;99.60;;;;;;5043577;28;20285;-78
2022/12/03 03:52:22;;;;;;;19.30;12.03;;;2.00;99.60;;;;;;5050990;28;20202;-78
2022/12/03 03:54:49;;;;;;;19.97;12.13;;;2.10;99.60;;;;;;5050109;28;20224;-77
2022/12/03 03:57:18;;;;;;;21.03;12.43;;;2.00;99.60;;;;;;5048015;28;20200;-78
2022/12/03 03:59:48;;;;;;;21.17;12.13;;;2.00;99.60;;;;;;5046359;28;20230;-77
2022/12/03 04:02:19;;;;;;;17.50;11.00;;;2.00;99.60;;;;;;5044624;28;20708;-78
2022/12/03 04:05:02;;;;;;;18.67;11.33;;;2.10;99.60;;;;;;5044930;28;20226;-78
2022/12/03 04:07:30;;;;;;;19.10;11.10;;;2.10;99.10;;;;;;5047377;28;20237;-77
2022/12/03 04:12:53;;;;;;;21.10;12.20;;;2.10;99.20;;;;;;5041968;28;20198;-78
2022/12/03 04:12:56;;;;;;;18.53;10.30;;;2.10;99.00;;;;;;5040089;28;20547;-79
2022/12/03 04:15:25;;;;;;;18.57;11.03;;;2.00;99.10;;;;;;5046287;28;20209;-79
2022/12/03 04:23:48;;;;;;;18.87;11.20;;;1.80;99.60;;;;;;5045439;28;20202;-79
2022/12/03 04:30:30;;;;;;;18.07;10.33;;;1.80;99.80;;;;;;5044268;28;20189;-82
2022/12/03 04:36:08;;;;;;;16.23;10.27;;;1.80;99.60;;;;;;4939125;29;20205;-78
2022/12/03 04:38:42;;;;;;;19.93;10.47;;;1.80;99.60;;;;;;4950632;28;20328;-77
2022/12/03 04:41:24;;;;;;;16.00;9.83;;;1.70;99.50;;;;;;4949988;28;20268;-78
2022/12/03 04:46:36;;;;;;;17.77;9.70;;;1.80;99.40;;;;;;4932614;28;20786;-81
2022/12/03 04:49:03;;;;;;;17.30;9.90;;;1.80;99.40;;;;;;4948627;28;20209;-78
2022/12/03 04:51:32;;;;;;;14.70;9.43;;;1.70;99.30;;;;;;4954195;28;20418;-78
2022/12/03 04:53:59;;;;;;;21.17;10.40;;;1.60;99.50;;;;;;4946701;28;20225;-78
2022/12/03 04:56:26;;;;;;;18.97;10.20;;;1.60;99.50;;;;;;4949960;29;20300;-78
2022/12/03 04:58:54;;;;;;;15.50;9.60;;;1.60;99.50;;;;;;4945373;28;20653;-78
2022/12/03 05:01:21;;;;;;;19.27;10.30;;;1.60;99.50;;;;;;4944298;29;20296;-78
2022/12/03 05:03:49;;;;;;;16.43;9.97;;;1.70;99.50;;;;;;4949259;28;20207;-77
2022/12/03 05:06:18;;;;;;;21.33;10.00;;;1.70;99.50;;;;;;4975882;28;20245;-78
2022/12/03 05:08:46;;;;;;;16.93;9.87;;;1.70;99.50;;;;;;5046662;28;20205;-81
2022/12/03 05:11:24;;;;;;;18.70;9.50;;;1.80;99.60;;;;;;5050176;28;20206;-78
2022/12/03 05:13:52;;;;;;;19.93;10.37;;;1.70;99.50;;;;;;5051478;28;20656;-79
2022/12/03 05:16:21;;;;;;;16.30;10.07;;;1.60;99.50;;;;;;5053074;28;20202;-78
2022/12/03 05:18:48;;;;;;;24.23;10.33;;;1.70;99.90;;;;;;5035195;28;20690;-78
2022/12/03 05:21:18;;;;;;;16.67;10.07;;;1.70;99.80;;;;;;5051249;28;20228;-78
2022/12/03 05:23:51;;;;;;;18.07;10.40;;;1.70;99.50;;;;;;5049035;28;20289;-77
2022/12/03 05:26:31;;;;;;;19.10;10.77;;;1.70;99.50;;;;;;5029874;28;20309;-78
2022/12/03 05:28:57;;;;;;;22.80;10.67;;;1.60;99.50;;;;;;5052337;28;20206;-80
2022/12/03 05:31:30;;;;;;;16.27;9.87;;;1.60;99.50;;;;;;5043422;28;20292;-79
2022/12/03 05:34:07;;;;;;;19.97;10.70;;;1.60;99.90;;;;;;5029978;28;20294;-77
2022/12/03 05:36:54;;;;;;;22.63;11.03;;;1.60;99.90;;;;;;5043369;28;20229;-77
2022/12/03 05:39:43;;;;;;;17.10;10.77;;;1.60;99.90;;;;;;5044561;28;20245;-77
2022/12/03 05:45:12;;;;;;;26.90;11.47;;;1.70;99.50;;;;;;5049271;28;20205;-77
2022/12/03 05:47:42;;;;;;;19.47;11.27;;;1.70;99.90;;;;;;5046279;28;20312;-78
2022/12/03 05:50:18;;;;;;;19.07;11.33;;;1.70;99.90;;;;;;5042528;28;20340;-77
2022/12/03 05:52:46;;;;;;;25.27;12.13;;;1.70;99.90;;;;;;5054027;28;20202;-77
2022/12/03 05:55:14;;;;;;;22.53;12.10;;;1.70;99.90;;;;;;5024010;28;20220;-77
2022/12/03 05:57:41;;;;;;;19.10;11.20;;;1.80;99.90;;;;;;5030997;28;20561;-77
2022/12/03 06:00:13;;;;;;;19.53;11.20;;;1.90;99.90;;;;;;5053296;28;20226;-78
2022/12/03 06:02:54;;;;;;;23.03;12.17;;;1.90;99.80;;;;;;5050297;28;20194;-77
2022/12/03 06:05:30;;;;;;;19.97;11.83;;;1.90;99.60;;;;;;5047946;28;20205;-78
2022/12/03 06:07:57;;;;;;;21.07;11.60;;;1.80;99.60;;;;;;5044538;28;20297;-77
2022/12/03 06:10:27;;;;;;;20.50;11.57;;;1.90;99.90;;;;;;5053765;28;20281;-77
2022/12/03 06:12:55;;;;;;;23.10;12.43;;;1.90;99.60;;;;;;5048546;28;20198;-77
2022/12/03 06:15:31;;;;;;;22.57;12.10;;;1.90;99.60;;;;;;5051810;28;20202;-78
2022/12/03 06:18:00;;;;;;;20.70;12.03;;;2.00;99.60;;;;;;5047083;28;20285;-77
2022/12/03 06:20:48;;;;;;;22.53;12.30;;;1.90;99.60;;;;;;5047297;28;20226;-77
2022/12/03 06:23:31;;;;;;;27.83;12.57;;;1.90;99.60;;;;;;5050890;28;20212;-77
2022/12/03 06:26:02;;;;;;;23.10;12.70;;;1.90;99.70;;;;;;5043841;28;20282;-77
2022/12/03 06:28:30;;;;;;;27.13;13.47;;;1.80;99.60;;;;;;5052404;28;20206;-78
2022/12/03 06:31:01;;;;;;;23.93;12.83;;;1.70;99.70;;;;;;5048550;28;20205;-77
2022/12/03 06:34:00;;;;;;;23.03;12.70;;;1.70;99.90;;;;;;5049649;28;20216;-77
2022/12/03 06:36:30;;;;;;;27.07;13.10;;;1.70;99.90;;;;;;5049232;28;20209;-77
2022/12/03 06:39:18;;;;;;;24.30;13.20;;;1.80;99.90;;;;;;5048025;28;20210;-77
2022/12/03 06:41:56;;;;;;;23.77;12.93;;;1.90;99.90;;;;;;5048706;28;20742;-77
2022/12/03 06:44:23;;;;;;;27.70;13.10;;;1.80;99.90;;;;;;5049743;28;20206;-77
2022/12/03 06:46:54;;;;;;;23.70;12.10;;;1.90;99.90;;;;;;5043392;28;20198;-77
2022/12/03 06:49:24;;;;;;;21.87;11.87;;;1.90;99.90;;;;;;5040765;28;20298;-77
2022/12/03 06:51:51;;;;;;;25.23;13.13;;;1.80;99.90;;;;;;5041883;28;20203;-78
2022/12/03 06:54:18;;;;;;;22.67;13.03;;;1.80;99.90;;;;;;5045008;28;20252;-78
2022/12/03 06:56:56;;;;;;;27.90;13.30;;;2.00;99.90;;;;;;5049807;28;20293;-78
2022/12/03 06:59:23;;;;;;;23.70;12.87;;;2.10;99.60;;;;;;5051339;28;20210;-78
2022/12/03 07:02:12;;;;;;;20.80;11.83;;;2.00;99.60;;;;;;5049950;28;20586;-77
2022/12/03 07:04:48;;;;;;;22.47;12.50;;;2.10;99.60;;;;;;5041080;28;20197;-77
2022/12/03 07:07:15;;;;;;;24.10;13.60;;;2.10;99.30;;;;;;5028895;28;20237;-78
2022/12/03 07:09:55;;;;;;;22.00;12.40;;;2.10;99.60;;;;;;5044014;28;20208;-78
2022/12/03 07:12:23;;;;;;;22.63;12.70;;;2.10;99.60;;;;;;5044367;28;20236;-78
2022/12/03 07:15:00;;;;;;;22.00;12.13;;;2.00;99.30;;;;;;5046282;28;20613;-78
2022/12/03 07:17:42;;;;;;;23.63;12.30;;;2.00;99.50;;;;;;5046673;28;20205;-77
2022/12/03 07:20:10;;;;;;;22.10;12.50;;;1.90;99.60;;;;;;5043475;28;20198;-78
2022/12/03 07:22:37;;;;;;;21.97;11.90;;;1.90;99.60;;;;;;5045121;28;20198;-80
2022/12/03 07:25:07;;;;;;;25.90;13.90;;;1.90;99.60;;;;;;5047336;28;20284;-78
2022/12/03 07:27:44;;;;;;;23.63;12.67;;;1.90;99.60;;;;;;5045803;28;20296;-78
2022/12/03 07:30:26;;;;;;;23.13;13.00;;;1.90;99.60;;;;;;5051081;28;20216;-78
2022/12/03 07:33:12;;;;;;;23.60;12.87;;;2.00;99.60;;;;;;5049071;28;20230;-78
2022/12/03 07:35:39;;;;;;;23.17;12.20;;;2.00;99.60;;;;;;5038726;28;20198;-77
2022/12/03 07:38:06;;;;;;;25.17;12.73;;;1.90;99.60;;;;;;5040195;28;20202;-78
2022/12/03 07:40:36;;;;;;;23.63;13.00;;;1.90;99.60;;;;;;5044435;28;20252;-78
2022/12/03 07:43:05;;;;;;;22.53;12.93;;;2.00;99.60;;;;;;5043757;28;20210;-78
2022/12/03 07:45:32;;;;;;;21.60;12.70;;;1.90;99.60;;;;;;5049776;28;20202;-81
2022/12/03 07:47:59;;;;;;;22.47;12.43;;;1.90;99.60;;;;;;5049978;28;20572;-78
2022/12/03 07:50:30;;;;;;;20.20;12.77;;;2.00;99.60;;;;;;5042963;28;20208;-78
2022/12/03 07:53:24;;;;;;;21.77;12.53;;;2.00;99.60;;;;;;5046827;28;20199;-77
2022/12/03 07:55:51;;;;;;;23.97;13.07;;;2.00;99.60;;;;;;5048297;28;20297;-78
2022/12/03 07:58:20;;;;;;;22.97;12.53;;;2.00;99.60;;;;;;5047833;28;20716;-78
2022/12/03 08:00:55;;;;;;;22.83;13.13;;;2.00;99.60;;;;;;5048805;28;20264;-78
2022/12/03 08:03:26;;;;;;;23.33;12.23;;;2.00;99.30;;;;;;5050353;28;20208;-78
2022/12/03 08:05:55;;;;;;;22.77;12.97;;;2.10;99.20;;;;;;5047616;28;20293;-78
2022/12/03 08:08:48;;;;;;;24.03;12.93;;;2.10;98.90;;;;;;5050388;28;20749;-79
2022/12/03 08:11:15;;;;;;;21.87;11.27;;;2.10;99.20;;;;;;5039985;28;20228;-78
2022/12/03 08:13:45;;;;;;;24.30;13.33;;;2.10;99.30;;;;;;5029639;28;20284;-78
2022/12/03 08:16:16;;;;;;;22.60;12.20;;;2.10;99.00;;;;;;5045907;28;20205;-77
2022/12/03 08:18:50;;;;;;;23.73;13.07;;;2.00;98.90;;;;;;5046495;28;20210;-78
2022/12/03 08:21:25;;;;;;;23.30;12.53;;;2.00;99.30;;;;;;5047634;28;20255;-77
2022/12/03 08:23:57;;;;;;;20.97;12.07;;;2.10;99.30;;;;;;5041448;28;20665;-77
2022/12/03 08:26:30;;;;;;;21.07;11.83;;;2.10;98.90;;;;;;5049127;28;20204;-77
2022/12/03 08:29:15;;;;;;;25.50;12.33;;;2.20;98.60;;;;;;5048129;28;20292;-77
2022/12/03 08:32:06;;;;;;;18.50;11.57;;;2.10;98.50;;;;;;4996338;28;20207;-78
2022/12/03 08:34:48;;;;;;;20.60;11.87;;;2.00;98.60;;;;;;4999957;28;20575;-81
2022/12/03 08:37:24;;;;;;;21.27;11.87;;;2.10;98.90;;;;;;5004304;28;20290;-79
2022/12/03 08:40:42;;;;;;;21.87;12.20;;;2.00;98.90;;;;;;5005276;28;20813;-79
2022/12/03 08:43:20;;;;;;;19.53;11.23;;;2.00;98.90;;;;;;4999234;28;20310;-80
2022/12/03 08:45:51;;;;;;;25.30;13.10;;;2.10;99.10;;;;;;5000567;28;20298;-80
2022/12/03 08:48:32;;;;;;;23.30;12.50;;;2.00;99.20;;;;;;5001404;28;20282;-82
2022/12/03 08:51:13;;;;;;;22.00;12.20;;;2.10;99.30;;;;;;5007374;28;20221;-78
2022/12/03 08:53:51;;;;;;;22.07;11.80;;;2.20;99.20;;;;;;4991553;28;20222;-81
2022/12/03 08:56:23;;;;;;;19.63;10.73;;;2.20;98.60;;;;;;5000254;28;20298;-80
2022/12/03 08:59:27;;;;;;;19.50;11.47;;;2.20;98.60;;;;;;5008073;28;20283;-79
2022/12/03 09:02:26;;;;;;;19.60;11.63;;;2.10;98.60;;;;;;5004723;28;20218;-83
2022/12/03 09:05:13;;;;;;;20.10;11.30;;;2.20;98.70;;;;;;5000421;28;20222;-85
2022/12/03 09:07:42;;;;;;;19.07;11.07;;;2.30;98.50;;;;;;5003516;28;20264;-80
2022/12/03 09:10:12;;;;;;;21.20;12.17;;;2.30;98.30;;;;;;5043495;28;20297;-78
2022/12/03 09:12:41;;;;;;;18.80;11.33;;;2.20;98.40;;;;;;5048940;28;20234;-78
2022/12/03 09:15:08;;;;;;;20.00;11.60;;;2.20;98.20;;;;;;5049798;28;20293;-78
2022/12/03 09:17:50;;;;;;;21.77;12.27;;;2.20;98.00;;;;;;5050550;28;20204;-78
2022/12/03 09:20:25;;;;;;;19.70;11.53;;;2.20;98.00;;;;;;5046180;28;20281;-80
2022/12/03 09:22:55;;;;;;;21.37;12.20;;;2.20;98.10;;;;;;5044821;28;20299;-79
2022/12/03 09:26:06;;;;;;;17.83;11.03;;;2.30;98.00;;;;;;5047077;28;20212;-78
2022/12/03 09:28:36;;;;;;;21.43;11.87;;;2.30;98.10;;;;;;5049315;28;20615;-78
2022/12/03 09:31:06;;;;;;;18.10;10.47;;;2.20;98.30;;;;;;5047840;28;20662;-79
2022/12/03 09:33:44;;;;;;;18.93;10.93;;;2.20;98.00;;;;;;5050671;28;20208;-79
2022/12/03 09:36:12;;;;;;;20.97;11.33;;;2.20;98.10;;;;;;5049198;28;20205;-79
2022/12/03 09:38:42;;;;;;;18.13;10.70;;;2.30;98.20;;;;;;5047725;28;20288;-79
2022/12/03 09:41:36;;;;;;;20.30;11.17;;;2.30;97.90;;;;;;5046539;28;20222;-79
2022/12/03 09:44:03;;;;;;;20.30;11.57;;;2.30;98.40;;;;;;5052575;28;20216;-79
2022/12/03 09:46:31;;;;;;;18.57;11.00;;;2.20;98.10;;;;;;5054188;28;20288;-78
2022/12/03 09:49:00;;;;;;;17.57;10.67;;;2.30;98.20;;;;;;5050861;28;20198;-80
2022/12/03 09:51:32;;;;;;;19.63;11.10;;;2.30;98.10;;;;;;5043112;28;20197;-78
2022/12/03 09:54:43;;;;;;;18.93;10.83;;;2.30;98.10;;;;;;5050714;28;20225;-79
2022/12/03 09:57:19;;;;;;;20.63;11.47;;;2.30;98.30;;;;;;5041957;28;20268;-79
2022/12/03 09:59:48;;;;;;;18.20;11.30;;;2.30;98.20;;;;;;5046693;28;20228;-79
2022/12/03 10:02:22;;;;;;;19.33;11.27;;;2.40;98.50;;;;;;5044152;28;20234;-82
2022/12/03 10:05:21;;;;;;;16.50;10.87;;;2.50;98.00;;;;;;5042663;28;20294;-79
2022/12/03 10:07:48;;;;;;;19.77;10.93;;;2.50;97.50;;;;;;5044595;28;20206;-78
2022/12/03 10:10:20;;;;;;;20.70;11.57;;;2.30;98.00;;;;;;5047305;28;20684;-79
2022/12/03 10:12:48;;;;;;;18.67;10.93;;;2.40;98.00;;;;;;5044760;28;20381;-78
2022/12/03 10:15:25;;;;;;;17.77;10.70;;;2.40;98.00;;;;;;5042133;28;20764;-79
2022/12/03 10:17:55;;;;;;;17.53;10.63;;;2.50;97.70;;;;;;5027362;28;20228;-77
2022/12/03 10:20:44;;;;;;;18.83;10.60;;;2.50;97.80;;;;;;5048402;28;20202;-77
2022/12/03 10:23:20;;;;;;;18.87;10.63;;;2.60;97.60;;;;;;5049050;28;20753;-77
2022/12/03 10:25:57;;;;;;;18.63;10.67;;;2.70;97.60;;;;;;5045008;28;20846;-79
2022/12/03 10:28:30;;;;;;;17.83;10.67;;;2.70;97.50;;;;;;5048516;28;20204;-79
2022/12/03 10:31:03;;;;;;;19.90;10.90;;;2.80;96.90;;;;;;5048047;28;20198;-79
2022/12/03 10:33:33;;;;;;;18.07;11.17;;;2.70;96.80;;;;;;5044238;28;20277;-78
2022/12/03 10:36:22;;;;;;;19.17;10.27;;;2.60;97.20;;;;;;5048366;28;20201;-79
2022/12/03 10:39:07;;;;;;;18.43;10.60;;;2.60;97.20;;;;;;5047956;28;20198;-79
2022/12/03 10:41:42;;;;;;;18.53;11.07;;;2.70;96.90;;;;;;5050691;28;20221;-79
2022/12/03 10:44:19;;;;;;;16.67;10.17;;;2.60;96.90;;;;;;5045366;28;20584;-82
2022/12/03 10:47:04;;;;;;;16.47;10.97;;;2.60;96.80;;;;;;5044021;28;20209;-79
2022/12/03 10:50:02;;;;;;;15.27;10.03;;;2.60;96.30;;;;;;5026822;28;20546;-79
2022/12/03 10:52:33;;;;;;;16.00;10.20;;;2.60;96.00;;;;;;5049624;28;20237;-78
2022/12/03 10:55:01;;;;;;;16.67;10.33;;;2.60;96.20;;;;;;5045637;28;20766;-79
2022/12/03 10:57:38;;;;;;;20.77;11.07;;;2.50;96.30;;;;;;5032256;28;20202;-79
2022/12/03 11:00:06;;;;;;;19.90;11.00;;;2.50;97.00;;;;;;5048425;28;20313;-79
2022/12/03 11:02:38;;;;;;;19.33;11.40;;;2.50;96.90;;;;;;5049220;28;20714;-79
2022/12/03 11:05:06;;;;;;;18.23;11.10;;;2.40;96.70;;;;;;5044925;28;20595;-79
2022/12/03 11:07:45;;;;;;;20.50;11.77;;;2.50;97.00;;;;;;5047742;28;20206;-83
2022/12/03 11:10:20;;;;;;;17.73;11.30;;;2.50;97.00;;;;;;5048219;28;20676;-79
2022/12/03 11:13:28;;;;;;;21.37;12.13;;;2.60;96.70;;;;;;5040470;28;20201;-79
2022/12/03 11:16:15;;;;;;;19.43;11.87;;;2.60;96.80;;;;;;4988948;28;20204;-79
2022/12/03 11:19:02;;;;;;;29.57;18.23;;;2.60;97.00;;;;;;4987235;28;20251;-80
2022/12/03 11:21:31;;;;;;;20.47;12.53;;;2.70;97.80;;;;;;4987691;28;20219;-79
2022/12/03 11:24:20;;;;;;;22.17;12.30;;;2.70;96.40;;;;;;4988833;28;20216;-81
2022/12/03 11:27:19;;;;;;;36.80;22.37;;;2.60;96.50;;;;;;4989289;28;20211;-79
2022/12/03 11:30:02;;;;;;;24.77;14.17;;;2.70;97.20;;;;;;4929932;29;20704;-79
2022/12/03 11:33:12;;;;;;;22.93;13.20;;;2.70;96.80;;;;;;4931844;29;20252;-79
2022/12/03 11:36:14;;;;;;;22.30;13.40;;;2.60;96.80;;;;;;4933955;29;20232;-79
2022/12/03 11:38:54;;;;;;;28.03;16.47;;;2.60;97.20;;;;;;4931581;29;20259;-78
2022/12/03 11:41:40;;;;;;;29.83;16.80;;;2.50;97.70;;;;;;4929983;29;20241;-79
2022/12/03 11:44:32;;;;;;;23.30;12.90;;;2.50;98.00;;;;;;4928647;28;20209;-78
2022/12/03 11:47:14;;;;;;;23.10;13.67;;;2.50;97.40;;;;;;4923408;29;20212;-80
2022/12/03 11:49:50;;;;;;;24.53;14.03;;;2.50;97.30;;;;;;4940907;29;20685;-80
2022/12/03 11:52:27;;;;;;;26.40;14.77;;;2.50;97.30;;;;;;4934275;28;20213;-78
2022/12/03 11:55:15;;;;;;;22.57;13.10;;;2.50;97.30;;;;;;4951149;28;20224;-82
2022/12/03 11:57:50;;;;;;;23.33;14.43;;;2.60;97.20;;;;;;4950532;28;20201;-80
2022/12/03 12:00:27;;;;;;;26.77;14.73;;;2.60;97.20;;;;;;4941275;28;20204;-80
2022/12/03 12:02:56;;;;;;;25.27;14.47;;;2.50;97.20;;;;;;4953902;28;20224;-79
2022/12/03 12:05:28;;;;;;;25.20;14.97;;;2.50;97.30;;;;;;5046589;28;20197;-79
2022/12/03 12:08:18;;;;;;;24.67;14.03;;;2.50;97.50;;;;;;5048541;28;20292;-79
2022/12/03 12:10:49;;;;;;;21.77;12.77;;;2.60;97.20;;;;;;5044481;28;20218;-82
2022/12/03 12:13:54;;;;;;;24.80;14.27;;;2.60;97.20;;;;;;5045865;28;20280;-82
2022/12/03 12:16:51;;;;;;;17.93;11.30;;;2.70;97.40;;;;;;5047702;28;20288;-80
2022/12/03 12:19:38;;;;;;;21.33;13.27;;;2.80;96.50;;;;;;5044515;28;20295;-79
2022/12/03 12:22:31;;;;;;;21.73;12.03;;;2.80;96.90;;;;;;5045762;28;20304;-82
2022/12/03 12:25:01;;;;;;;22.97;12.97;;;2.60;96.70;;;;;;5041199;28;20202;-83
2022/12/03 12:30:50;;;;;;;20.93;11.90;;;2.60;97.20;;;;;;5045297;28;20231;-83
2022/12/03 12:33:22;;;;;;;29.90;16.53;;;2.70;97.20;;;;;;5050338;28;20276;-83
2022/12/03 12:46:21;;;;;;;24.43;14.07;;;2.70;97.20;;;;;;5053240;28;20177;-83
2022/12/03 13:01:16;;;;;;;21.83;12.37;;;2.60;97.20;;;;;;5014844;28;20202;-85
2022/12/03 13:03:44;;;;;;;20.13;12.67;;;2.60;97.20;;;;;;5005389;28;20242;-85
2022/12/03 13:06:16;;;;;;;23.50;13.13;;;2.40;97.20;;;;;;5001583;28;20239;-83
2022/12/03 13:09:24;;;;;;;19.53;12.33;;;2.40;97.40;;;;;;5010871;28;20196;-85
2022/12/03 13:12:19;;;;;;;27.60;15.00;;;2.50;97.50;;;;;;5007475;28;20199;-84
2022/12/03 13:18:31;;;;;;;25.00;14.07;;;2.50;97.50;;;;;;5012997;28;20227;-84
2022/12/03 13:21:20;;;;;;;21.40;13.43;;;2.50;97.70;;;;;;5008217;28;20223;-85
2022/12/03 13:24:01;;;;;;;22.23;13.10;;;2.50;97.20;;;;;;4999148;28;20220;-84
2022/12/03 13:26:43;;;;;;;20.23;12.67;;;2.50;97.20;;;;;;5003227;28;20199;-85
2022/12/03 13:29:15;;;;;;;22.60;13.90;;;2.50;97.20;;;;;;5014810;28;20302;-85
2022/12/03 13:32:36;;;;;;;20.93;12.60;;;2.50;97.20;;;;;;5003993;28;20960;-85
2022/12/03 13:35:22;;;;;;;22.10;12.33;;;2.40;97.10;;;;;;5009438;28;20707;-84
2022/12/03 13:38:13;;;;;;;20.60;11.70;;;2.40;97.20;;;;;;5017427;28;20199;-85
2022/12/03 13:40:40;;;;;;;23.53;13.63;;;2.40;97.20;;;;;;5008200;28;21120;-84
2022/12/03 13:43:54;;;;;;;23.87;13.67;;;2.20;97.30;;;;;;5012916;28;20727;-83
2022/12/03 13:46:35;;;;;;;23.40;13.60;;;2.20;97.50;;;;;;5006534;28;20241;-82
2022/12/03 13:49:30;;;;;;;20.63;12.33;;;2.10;97.60;;;;;;5012557;28;20207;-82
2022/12/03 13:52:00;;;;;;;22.53;12.80;;;2.00;98.20;;;;;;5013628;28;20202;-84
2022/12/03 13:54:49;;;;;;;22.50;12.50;;;2.10;97.90;;;;;;5012374;28;20227;-83
2022/12/03 14:04:00;;;;;;;24.83;13.63;;;2.10;98.10;;;;;;4996174;28;20784;-83
2022/12/03 14:06:27;;;;;;;25.60;14.53;;;2.20;98.20;;;;;;5012772;28;20195;-85
2022/12/03 14:08:56;;;;;;;24.70;14.47;;;2.20;98.20;;;;;;5009295;28;20195;-85
2022/12/03 14:14:13;;;;;;;26.53;15.10;;;2.20;98.90;;;;;;5002470;28;20215;-84
2022/12/03 14:17:00;;;;;;;22.27;13.50;;;2.40;98.40;;;;;;4999604;28;20294;-88
2022/12/03 14:19:31;;;;;;;25.93;14.87;;;2.40;98.20;;;;;;5000083;28;20815;-84
2022/12/03 14:21:59;;;;;;;28.27;15.23;;;2.20;98.10;;;;;;5001234;28;20238;-84
2022/12/03 14:24:50;;;;;;;25.90;13.57;;;2.20;98.30;;;;;;4997105;28;20618;-84
2022/12/03 14:27:17;;;;;;;21.33;13.03;;;2.30;98.20;;;;;;5007538;28;20196;-87